^^
Station Historical Data
Daily Summary for June 11, 2017 Units:  English    Metric   Both
« Previous Day
Next Day »
Daily Weekly Monthly Yearly Custom
  High: Low: Average:
Temperature: 90.0 °F 63.9 °F 78.6 °F
Dew Point: 65.2 °F 59.3 °F 62.5 °F
Humidity: 87 % 40 % 60 %
Wind Speed: 7.5 mph 0.0 mph 1.3 mph
Wind Gust: 16.1 mph - -
Wind:- - WSW
Pressure: 30.11 in 30.00 in -
Precipitation: 0.00 in    
Historical Graphs
 
 
Tabular Data for June 11, 2017
Time Temperature Dew Point Pressure Wind Wind Speed Wind Gust Humidity Rainfall Rate (Hourly) solar Conditions
00:03 73.1 °F 60.2 °F 30.03 in Calm     64 % 0.00 in 0.0 W/m2 RA
00:08 73.2 °F 60.3 °F 30.03 in Calm     64 % 0.00 in 0.0 W/m2 RA
00:13 73.2 °F 60.3 °F 30.03 in Calm     64 % 0.00 in 0.0 W/m2 CLR
00:18 73.2 °F 60.3 °F 30.03 in Calm   3.5 mph 64 % 0.00 in 0.0 W/m2 CLR
00:23 73.2 °F 60.3 °F 30.03 in Calm   3.5 mph 64 % 0.00 in 0.0 W/m2 CLR
00:28 73.3 °F 59.9 °F 30.03 in Calm   1.2 mph 63 % 0.00 in 0.0 W/m2 CLR
00:34 73.3 °F 59.9 °F 30.03 in Calm   1.2 mph 63 % 0.00 in 0.0 W/m2 CLR
00:39 73.3 °F 59.9 °F 30.03 in Calm     63 % 0.00 in 0.0 W/m2 CLR
00:44 73.2 °F 59.8 °F 30.03 in Calm     63 % 0.00 in 0.0 W/m2 CLR
00:49 72.3 °F 59.9 °F 30.04 in Calm     65 % 0.00 in 0.0 W/m2 CLR
00:54 71.6 °F 59.6 °F 30.04 in Calm     66 % 0.00 in 0.0 W/m2 CLR
00:59 71.1 °F 59.6 °F 30.04 in Calm     67 % 0.00 in 0.0 W/m2 CLR
01:04 70.8 °F 59.7 °F 30.04 in Calm     68 % 0.00 in 0.0 W/m2 CLR
01:09 70.8 °F 60.1 °F 30.04 in Calm     69 % 0.00 in 0.0 W/m2 CLR
01:14 70.5 °F 59.8 °F 30.04 in Calm     69 % 0.00 in 0.0 W/m2 CLR
01:19 70.6 °F 60.3 °F 30.04 in Calm     70 % 0.00 in 0.0 W/m2 CLR
01:24 70.8 °F 60.5 °F 30.04 in Calm     70 % 0.00 in 0.0 W/m2 CLR
01:29 70.3 °F 60.1 °F 30.04 in Calm     70 % 0.00 in 0.0 W/m2 CLR
01:34 70.0 °F 60.2 °F 30.05 in Calm     71 % 0.00 in 0.0 W/m2 CLR
01:36 69.9 °F 60.1 °F 30.05 in Calm     71 % 0.00 in 0.0 W/m2 CLR
01:41 69.6 °F 60.2 °F 30.04 in Calm     72 % 0.00 in 0.0 W/m2 CLR
01:46 69.5 °F 60.1 °F 30.05 in Calm     72 % 0.00 in 0.0 W/m2 CLR
01:51 69.4 °F 60.4 °F 30.05 in Calm     73 % 0.00 in 0.0 W/m2 CLR
01:56 69.4 °F 60.4 °F 30.05 in Calm     73 % 0.00 in 0.0 W/m2 CLR
02:01 69.3 °F 60.3 °F 30.05 in Calm     73 % 0.00 in 0.0 W/m2 CLR
02:06 69.2 °F 60.2 °F 30.05 in Calm     73 % 0.00 in 0.0 W/m2 CLR
02:11 68.9 °F 60.3 °F 30.04 in Calm     74 % 0.00 in 0.0 W/m2 CLR
02:16 68.9 °F 60.3 °F 30.04 in Calm     74 % 0.00 in 0.0 W/m2 CLR
02:21 68.9 °F 60.3 °F 30.05 in Calm     74 % 0.00 in 0.0 W/m2 CLR
02:26 68.8 °F 60.2 °F 30.04 in Calm     74 % 0.00 in 0.0 W/m2 CLR
02:31 68.6 °F 60.4 °F 30.04 in Calm     75 % 0.00 in 0.0 W/m2 CLR
02:36 68.5 °F 60.3 °F 30.04 in Calm     75 % 0.00 in 0.0 W/m2 CLR
02:41 68.3 °F 60.1 °F 30.04 in Calm     75 % 0.00 in 0.0 W/m2 CLR
02:46 68.0 °F 60.2 °F 30.04 in Calm     76 % 0.00 in 0.0 W/m2 CLR
02:51 67.6 °F 59.8 °F 30.04 in Calm     76 % 0.00 in 0.0 W/m2 CLR
02:56 67.4 °F 59.9 °F 30.04 in Calm     77 % 0.00 in 0.0 W/m2 CLR
03:01 67.3 °F 59.8 °F 30.04 in Calm     77 % 0.00 in 0.0 W/m2 CLR
03:06 67.2 °F 60.1 °F 30.04 in Calm     78 % 0.00 in 0.0 W/m2 CLR
03:11 67.3 °F 60.2 °F 30.04 in Calm     78 % 0.00 in 0.0 W/m2 CLR
03:16 67.4 °F 60.3 °F 30.04 in Calm     78 % 0.00 in 0.0 W/m2 CLR
03:21 67.2 °F 60.1 °F 30.04 in Calm     78 % 0.00 in 0.0 W/m2 CLR
03:26 66.5 °F 59.8 °F 30.04 in Calm     79 % 0.00 in 0.0 W/m2 CLR
03:31 65.9 °F 59.6 °F 30.04 in Calm     80 % 0.00 in 0.0 W/m2 CLR
03:36 65.9 °F 59.9 °F 30.03 in Calm     81 % 0.00 in 0.0 W/m2 CLR
03:41 65.8 °F 59.8 °F 30.03 in Calm     81 % 0.00 in 0.0 W/m2 CLR
03:46 65.7 °F 59.7 °F 30.04 in Calm     81 % 0.00 in 0.0 W/m2 CLR
03:51 65.7 °F 60.1 °F 30.04 in Calm     82 % 0.00 in 0.0 W/m2 CLR
03:56 65.5 °F 59.9 °F 30.04 in Calm     82 % 0.00 in 0.0 W/m2 CLR
04:01 65.2 °F 59.6 °F 30.04 in Calm     82 % 0.00 in 0.0 W/m2 CLR
04:06 65.0 °F 59.4 °F 30.04 in Calm     82 % 0.00 in 0.0 W/m2 CLR
04:11 64.7 °F 59.4 °F 30.04 in Calm     83 % 0.00 in 0.0 W/m2 CLR
04:16 64.7 °F 59.4 °F 30.04 in Calm     83 % 0.00 in 0.0 W/m2 CLR
04:21 64.8 °F 59.5 °F 30.04 in Calm     83 % 0.00 in 0.0 W/m2 CLR
04:26 65.2 °F 59.9 °F 30.05 in Calm     83 % 0.00 in 0.0 W/m2 CLR
04:31 65.6 °F 60.3 °F 30.05 in Calm     83 % 0.00 in 0.0 W/m2 CLR
04:36 65.6 °F 60.0 °F 30.05 in Calm     82 % 0.00 in 0.0 W/m2 CLR
04:42 65.4 °F 59.8 °F 30.05 in Calm     82 % 0.00 in 0.0 W/m2 CLR
04:47 65.1 °F 59.8 °F 30.05 in Calm     83 % 0.00 in 0.0 W/m2 CLR
04:52 64.8 °F 59.5 °F 30.05 in Calm     83 % 0.00 in 0.0 W/m2 CLR
04:57 64.6 °F 59.3 °F 30.05 in Calm     83 % 0.00 in 0.0 W/m2 CLR
04:58 64.6 °F 59.7 °F 30.05 in Calm     84 % 0.00 in 0.0 W/m2 CLR
05:03 64.6 °F 59.7 °F 30.06 in Calm     84 % 0.00 in 0.0 W/m2 CLR
05:08 64.7 °F 59.8 °F 30.06 in Calm     84 % 0.00 in 0.0 W/m2 CLR
05:13 64.7 °F 59.8 °F 30.06 in Calm     84 % 0.00 in 0.0 W/m2 CLR
05:18 64.4 °F 59.5 °F 30.06 in Calm     84 % 0.00 in 0.0 W/m2 CLR
05:23 64.2 °F 59.6 °F 30.07 in Calm     85 % 0.00 in 0.0 W/m2 CLR
05:28 64.2 °F 59.6 °F 30.07 in Calm     85 % 0.00 in 0.0 W/m2 CLR
05:33 64.3 °F 59.7 °F 30.07 in Calm     85 % 0.00 in 0.0 W/m2 CLR
05:38 64.0 °F 59.4 °F 30.07 in Calm     85 % 0.00 in 5.0 W/m2 CLR
05:43 64.2 °F 59.6 °F 30.07 in Calm     85 % 0.00 in 7.0 W/m2 CLR
05:48 64.3 °F 59.7 °F 30.07 in Calm     85 % 0.00 in 9.0 W/m2 CLR
05:53 64.2 °F 59.6 °F 30.07 in Calm     85 % 0.00 in 11.0 W/m2 CLR
05:58 64.1 °F 59.5 °F 30.08 in Calm     85 % 0.00 in 12.0 W/m2 CLR
06:03 64.0 °F 59.4 °F 30.08 in Calm     85 % 0.00 in 14.0 W/m2 CLR
06:08 64.0 °F 59.7 °F 30.08 in Calm     86 % 0.00 in 16.0 W/m2 CLR
06:13 63.9 °F 59.6 °F 30.08 in Calm     86 % 0.00 in 18.0 W/m2 CLR
06:18 64.1 °F 60.2 °F 30.08 in Calm     87 % 0.00 in 19.0 W/m2 CLR
06:23 64.4 °F 60.1 °F 30.08 in Calm     86 % 0.00 in 21.0 W/m2 CLR
06:24 64.5 °F 60.5 °F 30.08 in Calm     87 % 0.00 in 21.0 W/m2 CLR
06:29 64.8 °F 60.5 °F 30.08 in Calm     86 % 0.00 in 23.0 W/m2 CLR
06:34 65.1 °F 60.5 °F 30.08 in Calm     85 % 0.00 in 25.0 W/m2 CLR
06:39 65.3 °F 60.7 °F 30.08 in Calm     85 % 0.00 in 26.0 W/m2 CLR
06:44 65.6 °F 61.0 °F 30.08 in Calm     85 % 0.00 in 26.0 W/m2 CLR
06:49 66.0 °F 61.4 °F 30.08 in Calm     85 % 0.00 in 28.0 W/m2 CLR
06:54 66.4 °F 61.4 °F 30.09 in Calm     84 % 0.00 in 28.0 W/m2 CLR
06:59 67.0 °F 62.0 °F 30.09 in Calm     84 % 0.00 in 32.0 W/m2 CLR
07:04 67.6 °F 62.3 °F 30.09 in Calm     83 % 0.00 in 39.0 W/m2 CLR
07:09 68.4 °F 62.3 °F 30.09 in Calm     81 % 0.00 in 32.0 W/m2 CLR
07:14 68.9 °F 62.5 °F 30.09 in Calm   1.2 mph 80 % 0.00 in 32.0 W/m2 CLR
07:19 69.4 °F 62.6 °F 30.09 in Calm   1.2 mph 79 % 0.00 in 33.0 W/m2 CLR
07:24 69.9 °F 62.7 °F 30.09 in Calm   1.2 mph 78 % 0.00 in 37.0 W/m2 CLR
07:29 70.3 °F 62.7 °F 30.09 in Calm   1.2 mph 77 % 0.00 in 35.0 W/m2 CLR
07:35 70.8 °F 63.2 °F 30.09 in SW 1.5 mph 4.6 mph 77 % 0.00 in 35.0 W/m2 CLR
07:40 71.1 °F 62.8 °F 30.09 in SW 1.0 mph 5.0 mph 75 % 0.00 in 37.0 W/m2 CLR
07:45 71.4 °F 63.1 °F 30.09 in WSW 0.7 mph 4.6 mph 75 % 0.00 in 37.0 W/m2 CLR
07:50 71.6 °F 62.9 °F 30.09 in West 0.3 mph 6.9 mph 74 % 0.00 in 39.0 W/m2 CLR
07:55 72.0 °F 62.9 °F 30.10 in SSW 0.3 mph 6.9 mph 73 % 0.00 in 39.0 W/m2 CLR
08:00 72.3 °F 62.8 °F 30.10 in SW 3.7 mph 8.1 mph 72 % 0.00 in 40.0 W/m2 CLR
08:05 72.6 °F 62.7 °F 30.10 in SW 4.5 mph 10.4 mph 71 % 0.00 in 40.0 W/m2 CLR
08:10 72.8 °F 62.8 °F 30.10 in WSW 1.9 mph 10.4 mph 71 % 0.00 in 40.0 W/m2 CLR
08:15 72.9 °F 62.5 °F 30.10 in SSW 4.9 mph 10.4 mph 70 % 0.00 in 42.0 W/m2 CLR
08:20 73.2 °F 62.8 °F 30.10 in WSW 2.1 mph 9.2 mph 70 % 0.00 in 46.0 W/m2 CLR
08:25 73.4 °F 63.0 °F 30.10 in WSW 5.5 mph 9.2 mph 70 % 0.00 in 44.0 W/m2 CLR
08:30 73.8 °F 63.0 °F 30.10 in WSW 1.2 mph 8.1 mph 69 % 0.00 in 46.0 W/m2 CLR
08:35 74.2 °F 63.4 °F 30.11 in SSW 2.1 mph 10.4 mph 69 % 0.00 in 46.0 W/m2 CLR
08:40 74.7 °F 63.4 °F 30.11 in SW 3.7 mph 10.4 mph 68 % 0.00 in 47.0 W/m2 CLR
08:45 75.0 °F 63.7 °F 30.11 in West 0.7 mph 8.1 mph 68 % 0.00 in 49.0 W/m2 CLR
08:50 75.2 °F 63.5 °F 30.10 in WSW 2.8 mph 8.1 mph 67 % 0.00 in 49.0 W/m2 CLR
08:51 75.2 °F 63.5 °F 30.10 in Calm   6.9 mph 67 % 0.00 in 49.0 W/m2 CLR
08:56 75.6 °F 63.9 °F 30.10 in SW 2.0 mph 8.1 mph 67 % 0.00 in 86.0 W/m2 CLR
09:01 75.8 °F 64.1 °F 30.10 in South 0.5 mph 8.1 mph 67 % 0.00 in 74.0 W/m2 CLR
09:06 76.2 °F 63.6 °F 30.10 in SSW 2.8 mph 8.1 mph 65 % 0.00 in 54.0 W/m2 CLR
09:12 76.4 °F 63.8 °F 30.10 in WSW 1.1 mph 10.4 mph 65 % 0.00 in 589.0 W/m2 CLR
09:17 76.9 °F 64.2 °F 30.10 in WSW 5.3 mph 11.5 mph 65 % 0.00 in 612.0 W/m2 CLR
09:22 77.0 °F 63.4 °F 30.10 in West 0.6 mph 11.5 mph 63 % 0.00 in 628.0 W/m2 CLR
09:27 77.6 °F 64.0 °F 30.10 in West 0.9 mph 11.5 mph 63 % 0.00 in 642.0 W/m2 CLR
09:32 77.8 °F 63.7 °F 30.10 in SW 0.2 mph 10.4 mph 62 % 0.00 in 657.0 W/m2 CLR
09:37 78.2 °F 64.1 °F 30.10 in SW 2.5 mph 10.4 mph 62 % 0.00 in 670.0 W/m2 CLR
09:42 78.5 °F 63.9 °F 30.10 in SW 1.1 mph 6.9 mph 61 % 0.00 in 682.0 W/m2 CLR
09:47 78.7 °F 64.1 °F 30.09 in SW 0.5 mph 9.2 mph 61 % 0.00 in 696.0 W/m2 CLR
09:52 79.0 °F 63.9 °F 30.09 in WSW 3.7 mph 10.4 mph 60 % 0.00 in 714.0 W/m2 CLR
09:57 79.6 °F 63.5 °F 30.09 in NW 1.9 mph 10.4 mph 58 % 0.00 in 726.0 W/m2 CLR
10:02 80.0 °F 63.9 °F 30.09 in SW 2.6 mph 10.4 mph 58 % 0.00 in 740.0 W/m2 CLR
10:07 80.4 °F 63.8 °F 30.09 in SW 5.1 mph 11.5 mph 57 % 0.00 in 752.0 W/m2 CLR
10:12 80.5 °F 64.4 °F 30.09 in WSW 3.5 mph 11.5 mph 58 % 0.00 in 766.0 W/m2 CLR
10:13 80.6 °F 64.5 °F 30.09 in SW 6.0 mph 11.5 mph 58 % 0.00 in 768.0 W/m2 CLR
10:18 80.9 °F 63.7 °F 30.09 in WNW 3.1 mph 11.5 mph 56 % 0.00 in 784.0 W/m2 CLR
10:28 81.3 °F 64.1 °F 30.08 in WNW 4.8 mph 12.7 mph 56 % 0.00 in 800.0 W/m2 CLR
10:33 81.4 °F 64.2 °F 30.08 in SW 5.1 mph 13.8 mph 56 % 0.00 in 698.0 W/m2 CLR
10:38 82.1 °F 64.3 °F 30.08 in SSE 0.6 mph 13.8 mph 55 % 0.00 in 835.0 W/m2 CLR
10:43 82.2 °F 64.4 °F 30.08 in SW 3.6 mph 13.8 mph 55 % 0.00 in 837.0 W/m2 CLR
10:48 82.4 °F 64.6 °F 30.08 in WNW 3.7 mph 15.0 mph 55 % 0.00 in 846.0 W/m2 CLR
10:53 82.7 °F 64.4 °F 30.08 in WSW 7.0 mph 15.0 mph 54 % 0.00 in 851.0 W/m2 CLR
10:58 82.9 °F 64.0 °F 30.08 in WNW 4.5 mph 12.7 mph 53 % 0.00 in 863.0 W/m2 CLR
11:03 83.1 °F 64.2 °F 30.08 in WNW 4.3 mph 12.7 mph 53 % 0.00 in 865.0 W/m2 CLR
11:08 83.6 °F 64.1 °F 30.08 in Calm   12.7 mph 52 % 0.00 in 875.0 W/m2 CLR
11:13 84.2 °F 64.7 °F 30.08 in Calm   11.5 mph 52 % 0.00 in 879.0 W/m2 CLR
11:18 84.2 °F 64.7 °F 30.08 in WSW 1.4 mph 10.4 mph 52 % 0.00 in 891.0 W/m2 CLR
11:23 84.6 °F 64.5 °F 30.08 in NW 4.0 mph 10.4 mph 51 % 0.00 in 893.0 W/m2 CLR
11:28 85.3 °F 64.0 °F 30.08 in NW 0.5 mph 12.7 mph 49 % 0.00 in 904.0 W/m2 CLR
11:33 85.8 °F 63.8 °F 30.08 in WNW 1.1 mph 12.7 mph 48 % 0.00 in 914.0 W/m2 CLR
11:38 85.9 °F 63.3 °F 30.08 in West 2.7 mph 12.7 mph 47 % 0.00 in 918.0 W/m2 CLR
11:43 85.9 °F 62.7 °F 30.07 in WNW 6.8 mph 12.7 mph 46 % 0.00 in 918.0 W/m2 CLR
11:48 86.8 °F 62.9 °F 30.07 in NNW 2.0 mph 16.1 mph 45 % 0.00 in 928.0 W/m2 CLR
11:53 86.4 °F 63.2 °F 30.07 in SW 1.5 mph 16.1 mph 46 % 0.00 in 937.0 W/m2 CLR
11:58 85.6 °F 62.4 °F 30.07 in WSW 0.9 mph 15.0 mph 46 % 0.00 in 946.0 W/m2 CLR
12:03 85.9 °F 62.1 °F 30.07 in WSW 4.2 mph 15.0 mph 45 % 0.00 in 949.0 W/m2 CLR
12:08 85.6 °F 61.8 °F 30.07 in WSW 4.8 mph 11.5 mph 45 % 0.00 in 954.0 W/m2 CLR
12:13 85.5 °F 63.0 °F 30.07 in NW 3.5 mph 11.5 mph 47 % 0.00 in 956.0 W/m2 CLR
12:18 85.9 °F 62.7 °F 30.07 in NNW 0.8 mph 11.5 mph 46 % 0.00 in 951.0 W/m2 CLR
12:23 86.4 °F 62.5 °F 30.07 in Calm   9.2 mph 45 % 0.00 in 963.0 W/m2 CLR
12:28 86.8 °F 63.5 °F 30.07 in West 2.1 mph 9.2 mph 46 % 0.00 in 965.0 W/m2 CLR
12:33 86.3 °F 63.7 °F 30.07 in WNW 3.3 mph 11.5 mph 47 % 0.00 in 969.0 W/m2 CLR
12:38 86.8 °F 62.3 °F 30.07 in SW 4.0 mph 11.5 mph 44 % 0.00 in 970.0 W/m2 CLR
12:43 86.6 °F 62.7 °F 30.07 in WNW 3.4 mph 9.2 mph 45 % 0.00 in 974.0 W/m2 CLR
12:48 86.9 °F 62.4 °F 30.07 in SW 2.6 mph 11.5 mph 44 % 0.00 in 974.0 W/m2 CLR
12:53 86.4 °F 62.5 °F 30.07 in West 2.7 mph 13.8 mph 45 % 0.00 in 972.0 W/m2 CLR
12:58 86.8 °F 62.3 °F 30.06 in SW 3.1 mph 13.8 mph 44 % 0.00 in 970.0 W/m2 CLR
13:03 86.7 °F 61.5 °F 30.06 in SW 5.7 mph 13.8 mph 43 % 0.00 in 969.0 W/m2 CLR
13:09 87.0 °F 62.5 °F 30.06 in WNW 3.0 mph 13.8 mph 44 % 0.00 in 977.0 W/m2 CLR
13:13 87.5 °F 62.2 °F 30.06 in West 0.8 mph 11.5 mph 43 % 0.00 in 970.0 W/m2 CLR
13:18 87.5 °F 61.6 °F 30.06 in SSW 6.0 mph 13.8 mph 42 % 0.00 in 970.0 W/m2 CLR
13:24 87.2 °F 62.0 °F 30.05 in WSW 3.9 mph 13.8 mph 43 % 0.00 in 965.0 W/m2 CLR
13:29 86.7 °F 62.2 °F 30.05 in West 7.5 mph 13.8 mph 44 % 0.00 in 970.0 W/m2 CLR
13:34 87.0 °F 61.8 °F 30.05 in WSW 2.1 mph 13.8 mph 43 % 0.00 in 969.0 W/m2 CLR
13:39 87.1 °F 61.9 °F 30.05 in South 2.4 mph 13.8 mph 43 % 0.00 in 969.0 W/m2 CLR
13:44 87.3 °F 62.7 °F 30.05 in WNW 0.7 mph 11.5 mph 44 % 0.00 in 962.0 W/m2 CLR
13:49 88.3 °F 63.6 °F 30.05 in West 1.1 mph 9.2 mph 44 % 0.00 in 953.0 W/m2 CLR
13:54 89.0 °F 63.6 °F 30.05 in SSW 1.4 mph 10.4 mph 43 % 0.00 in 942.0 W/m2 CLR
13:55 88.9 °F 62.8 °F 30.05 in SW 2.5 mph 10.4 mph 42 % 0.00 in 942.0 W/m2 CLR
14:00 88.5 °F 63.1 °F 30.05 in NW 5.4 mph 12.7 mph 43 % 0.00 in 939.0 W/m2 CLR
14:04 88.6 °F 63.2 °F 30.05 in WSW 0.6 mph 12.7 mph 43 % 0.00 in 932.0 W/m2 CLR
14:09 88.4 °F 62.4 °F 30.04 in SW 3.5 mph 12.7 mph 42 % 0.00 in 916.0 W/m2 CLR
14:15 88.6 °F 61.9 °F 30.04 in SW 6.0 mph 13.8 mph 41 % 0.00 in 918.0 W/m2 CLR
14:20 88.4 °F 62.4 °F 30.04 in SW 1.0 mph 10.0 mph 42 % 0.00 in 911.0 W/m2 CLR
14:25 88.9 °F 63.5 °F 30.04 in SW 2.0 mph 10.0 mph 43 % 0.00 in 904.0 W/m2 CLR
14:30 88.8 °F 63.4 °F 30.04 in SW 1.7 mph 10.4 mph 43 % 0.00 in 895.0 W/m2 CLR
14:35 88.3 °F 63.0 °F 30.04 in SSW 5.0 mph 13.0 mph 43 % 0.00 in 875.0 W/m2 CLR
14:40 88.4 °F 63.7 °F 30.04 in SSW 2.0 mph 10.0 mph 44 % 0.00 in 886.0 W/m2 CLR
14:45 88.6 °F 63.9 °F 30.04 in SW 2.8 mph 12.7 mph 44 % 0.00 in 868.0 W/m2 CLR
14:50 88.6 °F 62.5 °F 30.04 in WSW 2.0 mph 12.0 mph 42 % 0.00 in 872.0 W/m2 CLR
14:55 88.1 °F 62.8 °F 30.04 in WSW 2.5 mph 12.7 mph 43 % 0.00 in 858.0 W/m2 CLR
15:00 88.8 °F 64.1 °F 30.04 in SW 3.5 mph 12.7 mph 44 % 0.00 in 853.0 W/m2 CLR
15:05 88.8 °F 62.1 °F 30.04 in West 4.5 mph 15.0 mph 41 % 0.00 in 847.0 W/m2 CLR
15:10 88.9 °F 62.8 °F 30.03 in SSW 2.5 mph 15.0 mph 42 % 0.00 in 833.0 W/m2 CLR
15:15 88.7 °F 63.3 °F 30.03 in SSW 2.3 mph 9.2 mph 43 % 0.00 in 826.0 W/m2 CLR
15:20 88.9 °F 62.8 °F 30.03 in SW 4.1 mph 12.7 mph 42 % 0.00 in 817.0 W/m2 CLR
15:25 89.0 °F 63.6 °F 30.04 in SW 4.6 mph 12.7 mph 43 % 0.00 in 810.0 W/m2 CLR
15:30 88.8 °F 62.7 °F 30.03 in WSW 5.1 mph 12.7 mph 42 % 0.00 in 793.0 W/m2 CLR
15:35 89.1 °F 63.0 °F 30.03 in WSW 3.8 mph 12.7 mph 42 % 0.00 in 786.0 W/m2 CLR
15:40 88.8 °F 63.4 °F 30.03 in SW 1.2 mph 11.5 mph 43 % 0.00 in 766.0 W/m2 CLR
15:45 88.8 °F 63.4 °F 30.03 in South 4.8 mph 13.8 mph 43 % 0.00 in 759.0 W/m2 CLR
15:50 89.0 °F 63.6 °F 30.03 in WSW 3.1 mph 13.8 mph 43 % 0.00 in 745.0 W/m2 CLR
15:55 89.5 °F 63.4 °F 30.03 in SSW 6.7 mph 12.7 mph 42 % 0.00 in 724.0 W/m2 CLR
16:00 89.5 °F 64.0 °F 30.03 in SW 2.0 mph 11.5 mph 43 % 0.00 in 722.0 W/m2 CLR
16:05 89.8 °F 63.6 °F 30.03 in SW 4.8 mph 11.5 mph 42 % 0.00 in 694.0 W/m2 CLR
16:10 89.4 °F 63.3 °F 30.02 in SW 4.5 mph 13.8 mph 42 % 0.00 in 703.0 W/m2 CLR
16:15 89.2 °F 63.1 °F 30.02 in WSW 1.1 mph 15.0 mph 42 % 0.00 in 686.0 W/m2 CLR
16:20 89.8 °F 63.0 °F 30.02 in WSW 3.1 mph 15.0 mph 41 % 0.00 in 675.0 W/m2 CLR
16:26 89.8 °F 63.6 °F 30.02 in South 3.0 mph 12.7 mph 42 % 0.00 in 663.0 W/m2 CLR
16:31 89.9 °F 63.7 °F 30.02 in WSW 2.3 mph 12.7 mph 42 % 0.00 in 647.0 W/m2 CLR
16:36 89.6 °F 62.8 °F 30.02 in South 3.4 mph 10.4 mph 41 % 0.00 in 629.0 W/m2 CLR
16:41 89.4 °F 63.3 °F 30.02 in WSW 1.1 mph 10.4 mph 42 % 0.00 in 617.0 W/m2 CLR
16:46 90.0 °F 63.1 °F 30.02 in WSW 2.8 mph 10.4 mph 41 % 0.00 in 603.0 W/m2 CLR
16:51 89.9 °F 63.0 °F 30.02 in WSW 3.8 mph 11.5 mph 41 % 0.00 in 591.0 W/m2 CLR
16:56 89.7 °F 63.6 °F 30.02 in WSW 0.1 mph 11.5 mph 42 % 0.00 in 570.0 W/m2 CLR
17:01 89.9 °F 63.0 °F 30.02 in WSW 2.1 mph 13.8 mph 41 % 0.00 in 557.0 W/m2 CLR
17:06 89.8 °F 63.0 °F 30.02 in SW 4.0 mph 13.8 mph 41 % 0.00 in 540.0 W/m2 CLR
17:11 89.6 °F 62.1 °F 30.02 in WNW 3.5 mph 13.8 mph 40 % 0.00 in 520.0 W/m2 CLR
17:16 89.5 °F 62.7 °F 30.02 in WSW 1.5 mph 13.8 mph 41 % 0.00 in 506.0 W/m2 CLR
17:21 89.6 °F 62.8 °F 30.02 in WNW 3.2 mph 12.7 mph 41 % 0.00 in 490.0 W/m2 CLR
17:26 89.6 °F 62.8 °F 30.01 in WSW 2.7 mph 12.7 mph 41 % 0.00 in 469.0 W/m2 CLR
17:31 89.7 °F 62.9 °F 30.01 in SSW 2.5 mph 12.7 mph 41 % 0.00 in 446.0 W/m2 CLR
17:36 89.5 °F 62.7 °F 30.01 in South 2.3 mph 12.7 mph 41 % 0.00 in 443.0 W/m2 CLR
17:41 89.4 °F 62.6 °F 30.01 in SSW 2.3 mph 13.8 mph 41 % 0.00 in 424.0 W/m2 CLR
17:46 89.3 °F 62.5 °F 30.01 in SW 5.9 mph 13.8 mph 41 % 0.00 in 413.0 W/m2 CLR
17:51 89.3 °F 62.5 °F 30.01 in South 3.4 mph 11.5 mph 41 % 0.00 in 392.0 W/m2 CLR
17:56 89.2 °F 63.1 °F 30.00 in SW 5.1 mph 11.5 mph 42 % 0.00 in 380.0 W/m2 CLR
18:01 89.3 °F 63.2 °F 30.00 in SW 3.4 mph 11.5 mph 42 % 0.00 in 371.0 W/m2 CLR
18:06 89.2 °F 63.1 °F 30.01 in WSW 3.9 mph 11.5 mph 42 % 0.00 in 350.0 W/m2 CLR
18:11 89.0 °F 62.9 °F 30.00 in SSW 1.4 mph 11.5 mph 42 % 0.00 in 330.0 W/m2 CLR
18:16 89.1 °F 63.0 °F 30.00 in SW 4.2 mph 11.5 mph 42 % 0.00 in 322.0 W/m2 CLR
18:21 89.0 °F 62.9 °F 30.00 in SW 3.7 mph 11.5 mph 42 % 0.00 in 302.0 W/m2 CLR
18:26 89.0 °F 62.9 °F 30.01 in SSW 1.2 mph 11.5 mph 42 % 0.00 in 287.0 W/m2 CLR
18:31 88.8 °F 62.7 °F 30.00 in SSW 0.6 mph 11.5 mph 42 % 0.00 in 274.0 W/m2 CLR
18:36 88.9 °F 63.5 °F 30.00 in SW 1.9 mph 11.5 mph 43 % 0.00 in 260.0 W/m2 CLR
18:41 88.8 °F 63.4 °F 30.00 in WSW 1.6 mph 9.2 mph 43 % 0.00 in 241.0 W/m2 CLR
18:46 88.6 °F 63.2 °F 30.00 in SW 0.7 mph 9.2 mph 43 % 0.00 in 220.0 W/m2 CLR
18:51 88.5 °F 63.1 °F 30.00 in WSW 0.2 mph 8.1 mph 43 % 0.00 in 204.0 W/m2 CLR
18:52 88.5 °F 63.1 °F 30.00 in WSW 0.4 mph 8.1 mph 43 % 0.00 in 202.0 W/m2 CLR
18:57 88.4 °F 63.7 °F 30.00 in SSW 0.6 mph 8.1 mph 44 % 0.00 in 185.0 W/m2 CLR
19:02 88.2 °F 63.5 °F 30.00 in South 3.0 mph 11.5 mph 44 % 0.00 in 165.0 W/m2 CLR
19:07 88.0 °F 63.4 °F 30.00 in WSW 2.5 mph 11.5 mph 44 % 0.00 in 151.0 W/m2 CLR
19:12 87.9 °F 63.9 °F 30.00 in Calm   8.1 mph 45 % 0.00 in 132.0 W/m2 CLR
19:17 87.6 °F 63.6 °F 30.00 in West 1.1 mph 4.6 mph 45 % 0.00 in 118.0 W/m2 CLR
19:22 87.4 °F 63.5 °F 30.00 in WSW 0.7 mph 11.5 mph 45 % 0.00 in 100.0 W/m2 CLR
19:27 87.2 °F 63.9 °F 30.01 in WSW 3.8 mph 11.5 mph 46 % 0.00 in 86.0 W/m2 CLR
19:32 87.0 °F 63.7 °F 30.01 in SW 0.5 mph 6.9 mph 46 % 0.00 in 54.0 W/m2 CLR
19:37 86.8 °F 63.5 °F 30.01 in Calm   6.9 mph 46 % 0.00 in 39.0 W/m2 CLR
19:42 86.7 °F 64.1 °F 30.01 in Calm   3.5 mph 47 % 0.00 in 37.0 W/m2 CLR
19:47 86.6 °F 64.0 °F 30.01 in WSW 0.1 mph 8.1 mph 47 % 0.00 in 33.0 W/m2 CLR
19:52 86.3 °F 64.3 °F 30.01 in Calm   8.1 mph 48 % 0.00 in 32.0 W/m2 CLR
19:57 86.1 °F 64.7 °F 30.01 in Calm   3.5 mph 49 % 0.00 in 28.0 W/m2 CLR
19:58 86.0 °F 64.6 °F 30.01 in Calm   3.5 mph 49 % 0.00 in 28.0 W/m2 CLR
20:03 85.8 °F 64.4 °F 30.01 in Calm   3.5 mph 49 % 0.00 in 25.0 W/m2 CLR
20:08 85.5 °F 64.7 °F 30.01 in Calm     50 % 0.00 in 21.0 W/m2 CLR
20:13 85.3 °F 64.6 °F 30.01 in Calm     50 % 0.00 in 16.0 W/m2 CLR
20:18 85.0 °F 64.8 °F 30.01 in Calm     51 % 0.00 in 12.0 W/m2 CLR
20:23 84.7 °F 65.1 °F 30.01 in Calm     52 % 0.00 in 9.0 W/m2 CLR
20:28 84.4 °F 64.9 °F 30.01 in Calm     52 % 0.00 in 5.0 W/m2 CLR
20:33 84.1 °F 64.6 °F 30.01 in Calm     52 % 0.00 in 0.0 W/m2 CLR
20:38 83.9 °F 64.9 °F 30.01 in Calm     53 % 0.00 in 0.0 W/m2 CLR
20:43 83.8 °F 64.8 °F 30.01 in Calm     53 % 0.00 in 0.0 W/m2 CLR
20:48 83.5 °F 64.6 °F 30.01 in Calm     53 % 0.00 in 0.0 W/m2 CLR
20:53 83.2 °F 64.8 °F 30.01 in Calm     54 % 0.00 in 0.0 W/m2 CLR
20:58 82.8 °F 65.0 °F 30.01 in Calm     55 % 0.00 in 0.0 W/m2 CLR
21:03 82.5 °F 65.2 °F 30.01 in Calm     56 % 0.00 in 0.0 W/m2 CLR
21:08 82.2 °F 64.9 °F 30.01 in Calm     56 % 0.00 in 0.0 W/m2 CLR
21:13 81.9 °F 64.7 °F 30.02 in Calm     56 % 0.00 in 0.0 W/m2 CLR
21:18 81.6 °F 64.9 °F 30.02 in Calm     57 % 0.00 in 0.0 W/m2 CLR
21:23 81.3 °F 65.1 °F 30.02 in Calm     58 % 0.00 in 0.0 W/m2 CLR
21:28 80.8 °F 65.1 °F 30.02 in Calm     59 % 0.00 in 0.0 W/m2 CLR
21:33 80.3 °F 65.1 °F 30.02 in Calm     60 % 0.00 in 0.0 W/m2 CLR
21:38 80.2 °F 65.1 °F 30.02 in Calm     60 % 0.00 in 0.0 W/m2 CLR
21:43 79.7 °F 65.1 °F 30.02 in Calm     61 % 0.00 in 0.0 W/m2 CLR
21:48 79.4 °F 65.2 °F 30.02 in Calm     62 % 0.00 in 0.0 W/m2 CLR
21:53 78.9 °F 64.8 °F 30.02 in Calm     62 % 0.00 in 0.0 W/m2 CLR
21:58 78.4 °F 64.8 °F 30.02 in Calm     63 % 0.00 in 0.0 W/m2 CLR
22:03 78.3 °F 65.1 °F 30.02 in Calm     64 % 0.00 in 0.0 W/m2 CLR
22:08 78.3 °F 64.7 °F 30.02 in Calm     63 % 0.00 in 0.0 W/m2 CLR
22:13 78.4 °F 64.8 °F 30.02 in Calm     63 % 0.00 in 0.0 W/m2 CLR
22:18 78.4 °F 64.8 °F 30.02 in Calm     63 % 0.00 in 0.0 W/m2 CLR
22:24 78.6 °F 64.5 °F 30.02 in Calm     62 % 0.00 in 0.0 W/m2 CLR
22:29 78.7 °F 64.6 °F 30.03 in Calm     62 % 0.00 in 0.0 W/m2 CLR
22:34 78.6 °F 64.5 °F 30.03 in Calm     62 % 0.00 in 0.0 W/m2 CLR
22:39 78.5 °F 64.4 °F 30.03 in Calm     62 % 0.00 in 0.0 W/m2 CLR
22:44 78.3 °F 64.2 °F 30.03 in Calm     62 % 0.00 in 0.0 W/m2 CLR
22:49 78.2 °F 64.1 °F 30.03 in Calm     62 % 0.00 in 0.0 W/m2 CLR
22:54 78.1 °F 64.0 °F 30.03 in Calm     62 % 0.00 in 0.0 W/m2 CLR
22:59 77.8 °F 64.2 °F 30.03 in Calm     63 % 0.00 in 0.0 W/m2 CLR
23:04 77.6 °F 64.0 °F 30.03 in Calm     63 % 0.00 in 0.0 W/m2 CLR
23:09 77.2 °F 64.1 °F 30.03 in Calm     64 % 0.00 in 0.0 W/m2 CLR
23:14 76.9 °F 64.2 °F 30.03 in Calm     65 % 0.00 in 0.0 W/m2 CLR
23:19 76.6 °F 64.4 °F 30.03 in Calm     66 % 0.00 in 0.0 W/m2 CLR
23:24 76.2 °F 64.0 °F 30.03 in Calm     66 % 0.00 in 0.0 W/m2 CLR
23:29 75.9 °F 64.2 °F 30.03 in Calm     67 % 0.00 in 0.0 W/m2 CLR
23:34 75.6 °F 64.3 °F 30.03 in Calm     68 % 0.00 in 0.0 W/m2 CLR
23:39 75.3 °F 64.0 °F 30.03 in Calm     68 % 0.00 in 0.0 W/m2 CLR
23:44 75.0 °F 64.1 °F 30.03 in Calm     69 % 0.00 in 0.0 W/m2 CLR
23:49 74.7 °F 63.9 °F 30.03 in Calm     69 % 0.00 in 0.0 W/m2 CLR
23:54 74.5 °F 64.1 °F 30.03 in Calm     70 % 0.00 in 0.0 W/m2 CLR
23:59 74.4 °F 64.0 °F 30.02 in Calm     70 % 0.00 in 0.0 W/m2 CLR
Air Products Campus Weather
Compliments of Weather Underground - 3.5 mb